Time;durP1;ratioP1;P1;durP2;ratioP2;P2;SDS_P1;SDS_P2;PMS_P1;PMS_P2;Temp;Humidity;BMP_temperature;BMP_pressure;BME280_temperature;BME280_humidity;BME280_pressure;Samples;Min_cycle;Max_cycle;Signal;HPM_P1;HPM_P2
2021/05/03 00:00:00;;;;;;;;;;;;;;;8.18;53.32;101010.84;5031294;28;19913;-73
2021/05/03 00:02:25;;;;;;;;;;;;;;;8.18;53.49;101025.28;5032268;28;20068;-73
2021/05/03 00:04:51;;;;;;;;;;;;;;;8.19;53.52;101016.06;5031030;28;19921;-73
2021/05/03 00:07:16;;;;;;;;;;;;;;;8.21;53.05;101024.78;5032304;28;19916;-73
2021/05/03 00:09:41;;;;;;;;;;;;;;;8.24;52.97;101018.03;5013460;28;20472;-73
2021/05/03 00:12:07;;;;;;;;;;;;;;;8.24;53.00;101012.59;5032174;28;19913;-72
2021/05/03 00:14:32;;;;;;;;;;;;;;;8.24;52.85;101020.75;5044987;28;19909;-72
2021/05/03 00:16:57;;;;;;;;;;;;;;;8.24;52.66;101020.75;5028282;28;19920;-73
2021/05/03 00:19:22;;;;;;;;;;;;;;;8.27;52.65;101028.38;5027836;28;19935;-73
2021/05/03 00:21:48;;;;;;;;;;;;;;;8.28;52.71;101013.72;5031914;28;19912;-73
2021/05/03 00:24:13;;;;;;;;;;;;;;;8.31;52.62;101025.97;5043869;28;19941;-73
2021/05/03 00:26:38;;;;;;;;;;;;;;;8.32;52.34;101020.28;5047210;28;19940;-73
2021/05/03 00:29:03;;;;;;;;;;;;;;;8.32;52.50;101025.72;5027720;28;20376;-73
2021/05/03 00:31:29;;;;;;;;;;;;;;;8.34;52.25;101028.19;5034894;28;19960;-73
2021/05/03 00:33:55;;;;;;;;;;;;;;;8.37;52.51;101039.34;5030533;28;19962;-73
2021/05/03 00:36:20;;;;;;;;;;;;;;;8.40;52.30;101032.63;5035511;28;19913;-73
2021/05/03 00:38:45;;;;;;;;;;;;;;;8.43;52.52;101034.84;5031852;28;19971;-73
2021/05/03 00:41:12;;;;;;;;;;;;;;;8.42;52.64;101030.47;5050888;28;19913;-73
2021/05/03 00:43:37;;;;;;;;;;;;;;;8.45;52.99;101029.97;5044983;28;19959;-73
2021/05/03 00:46:02;;;;;;;;;;;;;;;8.45;53.62;101028.06;5033223;28;19956;-73
2021/05/03 00:48:28;;;;;;;;;;;;;;;8.46;54.19;101026.19;5050184;28;19913;-73
2021/05/03 00:50:53;;;;;;;;;;;;;;;8.45;53.84;101022.63;5017325;28;19959;-74
2021/05/03 00:53:18;;;;;;;;;;;;;;;8.44;54.80;101034.59;5032555;28;19958;-73
2021/05/03 00:55:43;;;;;;;;;;;;;;;8.47;54.48;101032.44;5029782;28;19913;-73
2021/05/03 00:58:09;;;;;;;;;;;;;;;8.45;55.59;101028.06;5016080;28;20374;-73
2021/05/03 01:00:34;;;;;;;;;;;;;;;8.41;55.95;101024.22;5024727;28;19995;-73
2021/05/03 01:02:59;;;;;;;;;;;;;;;8.38;56.12;101030.13;5034884;28;19940;-74
2021/05/03 01:05:28;;;;;;;;;;;;;;;8.39;55.68;101031.81;5022818;28;19917;-74
2021/05/03 01:07:54;;;;;;;;;;;;;;;8.42;55.41;101031.28;5034933;28;19953;-73
2021/05/03 01:10:19;;;;;;;;;;;;;;;8.42;56.11;101030.47;5022171;28;20374;-73
2021/05/03 01:12:45;;;;;;;;;;;;;;;8.40;56.66;101033.47;5031493;28;19917;-73
2021/05/03 01:15:10;;;;;;;;;;;;;;;8.38;56.44;101029.31;5019835;28;19913;-74
2021/05/03 01:17:36;;;;;;;;;;;;;;;8.38;56.51;101035.56;5050205;28;20265;-73
2021/05/03 01:20:07;;;;;;;;;;;;;;;8.36;56.74;101032.28;5036239;28;19910;-73
2021/05/03 01:22:33;;;;;;;;;;;;;;;8.32;57.58;101031.16;5034662;28;19912;-73
2021/05/03 01:24:58;;;;;;;;;;;;;;;8.27;57.94;101027.56;5020507;28;19910;-73
2021/05/03 01:27:24;;;;;;;;;;;;;;;8.26;57.67;101028.63;5034516;28;19921;-72
2021/05/03 01:29:50;;;;;;;;;;;;;;;8.25;57.47;101029.69;5033795;28;20259;-73
2021/05/03 01:32:15;;;;;;;;;;;;;;;8.26;57.12;101026.72;5034396;28;19920;-73
2021/05/03 01:34:42;;;;;;;;;;;;;;;8.29;56.71;101022.66;5033497;28;20371;-73
2021/05/03 01:37:11;;;;;;;;;;;;;;;8.29;56.78;101023.50;5034206;28;19912;-73
2021/05/03 01:39:36;;;;;;;;;;;;;;;8.26;56.91;101024.00;5029337;28;20258;-74
2021/05/03 01:42:02;;;;;;;;;;;;;;;8.23;56.81;101021.78;5033302;28;20327;-73
2021/05/03 01:44:27;;;;;;;;;;;;;;;8.19;56.91;101015.22;5031702;28;20295;-73
2021/05/03 01:46:52;;;;;;;;;;;;;;;8.18;56.86;101013.56;5049512;28;19924;-73
2021/05/03 01:49:17;;;;;;;;;;;;;;;8.16;56.55;101015.75;5046576;28;19913;-74
2021/05/03 01:51:42;;;;;;;;;;;;;;;8.14;56.86;101012.44;5049553;28;20358;-73
2021/05/03 01:54:08;;;;;;;;;;;;;;;8.13;56.89;101016.22;5046053;28;20287;-74
2021/05/03 01:56:33;;;;;;;;;;;;;;;8.10;56.78;101008.59;5049305;28;20004;-73
2021/05/03 01:58:58;;;;;;;;;;;;;;;8.07;56.85;101009.09;5029339;28;19967;-73
2021/05/03 02:01:24;;;;;;;;;;;;;;;8.06;56.89;101010.16;5030181;28;19909;-74
2021/05/03 02:03:49;;;;;;;;;;;;;;;8.06;56.68;101007.47;5045396;28;19974;-73
2021/05/03 02:06:14;;;;;;;;;;;;;;;8.05;56.56;101013.94;5026727;28;20020;-73
2021/05/03 02:08:39;;;;;;;;;;;;;;;8.05;56.21;101011.22;5031624;28;20282;-73
2021/05/03 02:11:05;;;;;;;;;;;;;;;8.05;56.37;101013.94;5024758;28;20354;-73
2021/05/03 02:13:30;;;;;;;;;;;;;;;8.05;55.91;101003.06;5048901;28;19963;-74
2021/05/03 02:15:56;;;;;;;;;;;;;;;8.03;56.05;101010.69;5032644;28;19912;-74
2021/05/03 02:18:21;;;;;;;;;;;;;;;8.00;55.98;101012.00;5033436;28;20250;-72
2021/05/03 02:20:46;;;;;;;;;;;;;;;7.99;55.93;101000.31;5038579;28;19916;-74
2021/05/03 02:23:11;;;;;;;;;;;;;;;7.96;56.07;101006.22;5048893;28;20427;-73
2021/05/03 02:25:37;;;;;;;;;;;;;;;7.94;56.08;101002.97;5022621;28;19913;-73
2021/05/03 02:28:02;;;;;;;;;;;;;;;7.92;55.66;101001.56;5048779;28;19932;-73
2021/05/03 02:30:27;;;;;;;;;;;;;;;7.90;55.63;100995.56;5021881;28;19913;-73
2021/05/03 02:32:52;;;;;;;;;;;;;;;7.86;55.80;100997.97;5048593;28;19935;-73
2021/05/03 02:35:18;;;;;;;;;;;;;;;7.85;55.51;101009.06;5036759;28;19946;-73
2021/05/03 02:37:46;;;;;;;;;;;;;;;7.81;55.56;101003.31;5027155;28;20282;-73
2021/05/03 02:40:12;;;;;;;;;;;;;;;7.78;55.52;101001.13;5019708;28;19917;-73
2021/05/03 02:42:37;;;;;;;;;;;;;;;7.75;55.52;100998.91;5031562;28;20072;-73
2021/05/03 02:45:03;;;;;;;;;;;;;;;7.71;55.51;100998.56;5044969;28;19917;-73
2021/05/03 02:47:28;;;;;;;;;;;;;;;7.67;55.55;100997.44;5017435;28;19963;-73
2021/05/03 02:49:53;;;;;;;;;;;;;;;7.64;55.57;101002.50;5039183;28;19921;-73
2021/05/03 02:52:18;;;;;;;;;;;;;;;7.63;55.37;101003.59;5027467;28;19909;-73
2021/05/03 02:54:44;;;;;;;;;;;;;;;7.58;55.35;100998.91;5025225;28;19917;-73
2021/05/03 02:57:09;;;;;;;;;;;;;;;7.56;55.41;100998.34;5026338;28;19916;-73
2021/05/03 02:59:34;;;;;;;;;;;;;;;7.52;55.35;100997.19;5028046;28;19919;-73
2021/05/03 03:01:59;;;;;;;;;;;;;;;7.50;55.38;100997.44;5032841;28;20401;-73
2021/05/03 03:04:25;;;;;;;;;;;;;;;7.49;55.24;101005.81;5028262;28;19936;-73
2021/05/03 03:06:50;;;;;;;;;;;;;;;7.47;55.25;101003.34;5030883;28;19959;-74
2021/05/03 03:09:15;;;;;;;;;;;;;;;7.46;55.55;100995.47;5029894;28;19944;-73
2021/05/03 03:11:44;;;;;;;;;;;;;;;7.48;55.27;100996.88;5029622;28;19909;-73
2021/05/03 03:14:09;;;;;;;;;;;;;;;7.50;55.21;100997.44;5045830;28;20501;-73
2021/05/03 03:16:35;;;;;;;;;;;;;;;7.52;55.11;100995.28;5028085;28;20354;-73
2021/05/03 03:19:00;;;;;;;;;;;;;;;7.53;55.54;100996.13;5031195;28;19913;-74
2021/05/03 03:21:25;;;;;;;;;;;;;;;7.53;55.88;100999.66;5014780;28;19909;-73
2021/05/03 03:23:51;;;;;;;;;;;;;;;7.52;56.78;100994.47;5032607;28;19995;-73
2021/05/03 03:26:16;;;;;;;;;;;;;;;7.51;57.36;100990.94;5040619;28;20285;-73
2021/05/03 03:28:41;;;;;;;;;;;;;;;7.53;57.72;101002.38;5032320;28;20331;-73
2021/05/03 03:31:07;;;;;;;;;;;;;;;7.54;57.73;100990.44;5024280;28;19913;-74
2021/05/03 03:33:32;;;;;;;;;;;;;;;7.56;58.35;100993.75;5027506;28;20354;-73
2021/05/03 03:35:57;;;;;;;;;;;;;;;7.59;59.04;100994.31;5023481;28;19928;-73
2021/05/03 03:38:22;;;;;;;;;;;;;;;7.61;60.13;100992.16;5032414;28;20382;-74
2021/05/03 03:40:48;;;;;;;;;;;;;;;7.60;60.25;100985.09;5022997;28;19913;-74
2021/05/03 03:43:13;;;;;;;;;;;;;;;7.61;60.49;100987.56;5032414;28;19919;-74
2021/05/03 03:45:38;;;;;;;;;;;;;;;7.63;61.23;100985.41;5004439;28;19924;-73
2021/05/03 03:48:06;;;;;;;;;;;;;;;7.63;62.32;100990.03;5032403;28;20341;-74
2021/05/03 03:50:32;;;;;;;;;;;;;;;7.61;62.87;100990.28;5021933;28;19957;-73
2021/05/03 03:52:58;;;;;;;;;;;;;;;7.58;63.35;100990.75;5032308;28;19920;-74
2021/05/03 03:55:23;;;;;;;;;;;;;;;7.55;64.20;100985.84;5031480;28;19913;-74
2021/05/03 03:57:48;;;;;;;;;;;;;;;7.50;64.87;100992.03;5015621;28;19944;-74
2021/05/03 04:00:14;;;;;;;;;;;;;;;7.49;65.53;100994.97;5030546;28;20003;-73
2021/05/03 04:02:39;;;;;;;;;;;;;;;7.46;65.57;100990.88;5042715;28;19913;-74
2021/05/03 04:07:49;;;;;;;;;;;;;;;7.39;66.14;100987.50;5036056;28;19959;-74
2021/05/03 04:26:28;;;;;;;;;;;;;;;7.55;67.48;100988.56;4997972;28;20369;-73
2021/05/03 04:28:53;;;;;;;;;;;;;;;7.57;67.37;100984.53;5035579;28;19919;-73
2021/05/03 04:31:19;;;;;;;;;;;;;;;7.61;67.54;100975.88;5045983;28;19920;-74
2021/05/03 04:33:44;;;;;;;;;;;;;;;7.65;67.62;100980.56;5050976;28;20057;-74
2021/05/03 04:36:11;;;;;;;;;;;;;;;7.67;67.83;100980.31;5045934;28;19960;-74
2021/05/03 04:38:36;;;;;;;;;;;;;;;7.72;67.26;100977.66;5050688;28;19925;-74
2021/05/03 04:41:01;;;;;;;;;;;;;;;7.75;67.33;100982.63;5029666;28;20028;-74
2021/05/03 04:43:27;;;;;;;;;;;;;;;7.78;67.78;100979.41;5050680;28;19913;-74
2021/05/03 04:45:52;;;;;;;;;;;;;;;7.78;67.96;100980.22;5028719;28;19968;-74
2021/05/03 04:48:17;;;;;;;;;;;;;;;7.82;68.39;100979.72;5035374;28;19974;-73
2021/05/03 04:50:43;;;;;;;;;;;;;;;7.82;68.16;100975.09;5031654;28;20400;-73
2021/05/03 04:53:08;;;;;;;;;;;;;;;7.86;68.34;100983.59;5050613;28;20432;-74
2021/05/03 04:55:33;;;;;;;;;;;;;;;7.85;68.54;100987.34;5043014;28;20344;-74
2021/05/03 04:57:58;;;;;;;;;;;;;;;7.88;68.04;100987.66;5034354;28;20445;-73
2021/05/03 05:00:24;;;;;;;;;;;;;;;7.93;67.94;100973.34;5028981;28;19913;-73
2021/05/03 05:02:49;;;;;;;;;;;;;;;7.98;67.56;100982.38;5028026;28;19912;-73
2021/05/03 05:05:14;;;;;;;;;;;;;;;8.00;67.49;100980.22;5029336;28;20283;-74
2021/05/03 05:07:40;;;;;;;;;;;;;;;8.03;67.38;100983.53;5027008;28;20066;-73
2021/05/03 05:10:06;;;;;;;;;;;;;;;8.08;67.18;100981.69;5013897;28;20368;-74
2021/05/03 05:12:31;;;;;;;;;;;;;;;8.07;67.38;100980.03;5024928;28;19913;-73
2021/05/03 05:14:57;;;;;;;;;;;;;;;8.05;67.02;100978.63;5048225;28;19917;-74
2021/05/03 05:17:22;;;;;;;;;;;;;;;8.08;66.70;100986.31;5020239;28;19912;-74
2021/05/03 05:19:47;;;;;;;;;;;;;;;8.13;66.73;100983.63;5034362;28;19932;-75
2021/05/03 05:22:12;;;;;;;;;;;;;;;8.17;66.53;100984.78;5020738;28;19963;-73
2021/05/03 05:24:38;;;;;;;;;;;;;;;8.17;66.66;100980.16;5021881;28;19917;-73
2021/05/03 05:27:03;;;;;;;;;;;;;;;8.25;66.07;100987.06;5043254;28;19955;-74
2021/05/03 05:29:29;;;;;;;;;;;;;;;8.30;66.71;100978.97;5050208;28;19920;-74
2021/05/03 05:31:54;;;;;;;;;;;;;;;8.30;66.26;100984.41;5032063;28;19983;-72
2021/05/03 05:34:19;;;;;;;;;;;;;;;8.32;66.24;100979.53;5033933;28;19913;-73
2021/05/03 05:36:44;;;;;;;;;;;;;;;8.34;66.66;100977.38;5012687;28;20310;-74
2021/05/03 05:39:10;;;;;;;;;;;;;;;8.37;66.50;100982.28;5033657;28;20408;-73
2021/05/03 05:41:35;;;;;;;;;;;;;;;8.43;66.54;100977.81;5031785;28;19913;-72
2021/05/03 05:44:00;;;;;;;;;;;;;;;8.47;65.95;100983.53;5034021;28;19966;-73
2021/05/03 05:46:25;;;;;;;;;;;;;;;8.54;66.09;100974.13;5046820;28;19917;-75
2021/05/03 05:48:51;;;;;;;;;;;;;;;8.61;65.89;100976.63;5016261;28;19909;-73
2021/05/03 05:51:16;;;;;;;;;;;;;;;8.65;65.57;100980.47;5029815;28;19913;-73
2021/05/03 05:53:41;;;;;;;;;;;;;;;8.73;65.33;100965.59;5016436;28;19966;-73
2021/05/03 05:56:06;;;;;;;;;;;;;;;8.79;65.36;100970.00;5045320;28;20271;-74
2021/05/03 05:58:33;;;;;;;;;;;;;;;8.85;65.08;100969.78;5026214;28;19910;-72
2021/05/03 06:00:59;;;;;;;;;;;;;;;8.91;64.61;100967.13;5019540;28;19920;-73
2021/05/03 06:03:24;;;;;;;;;;;;;;;8.94;64.61;100966.59;5032734;28;19912;-73
2021/05/03 06:05:49;;;;;;;;;;;;;;;8.96;64.86;100964.44;5027369;28;19983;-73
2021/05/03 06:08:14;;;;;;;;;;;;;;;8.89;64.63;100970.94;5030493;28;19916;-74
2021/05/03 06:10:40;;;;;;;;;;;;;;;8.83;64.81;100977.38;5029577;28;19913;-73
2021/05/03 06:13:05;;;;;;;;;;;;;;;8.83;64.54;100982.00;5027050;28;19909;-73
2021/05/03 06:15:30;;;;;;;;;;;;;;;8.84;64.36;100973.59;5046664;28;20250;-72
2021/05/03 06:17:56;;;;;;;;;;;;;;;8.84;64.55;100984.47;5026256;28;19932;-74
2021/05/03 06:20:21;;;;;;;;;;;;;;;8.83;64.44;100971.94;5047345;28;19979;-73
2021/05/03 06:22:46;;;;;;;;;;;;;;;8.81;64.32;100974.13;5023107;28;20326;-73
2021/05/03 06:25:11;;;;;;;;;;;;;;;8.83;64.29;100966.50;5033309;28;20405;-73
2021/05/03 06:27:37;;;;;;;;;;;;;;;8.83;64.17;100969.22;5037374;28;19917;-73
2021/05/03 06:30:03;;;;;;;;;;;;;;;8.91;64.42;100976.09;5033388;28;19909;-72
2021/05/03 06:32:28;;;;;;;;;;;;;;;8.94;63.98;100966.59;5018828;28;19936;-73
2021/05/03 06:34:54;;;;;;;;;;;;;;;8.89;64.04;100970.94;5033513;28;20367;-73
2021/05/03 06:37:19;;;;;;;;;;;;;;;8.91;64.40;100961.69;5021462;28;19962;-73
2021/05/03 06:39:44;;;;;;;;;;;;;;;9.01;64.26;100964.50;5048715;28;19916;-73
2021/05/03 06:42:10;;;;;;;;;;;;;;;9.09;64.03;100966.75;5020674;28;19919;-73
2021/05/03 06:44:35;;;;;;;;;;;;;;;9.17;64.03;100960.00;5032948;28;20317;-74
2021/05/03 06:47:04;;;;;;;;;;;;;;;9.25;64.20;100957.63;5020315;28;19921;-73
2021/05/03 06:49:29;;;;;;;;;;;;;;;9.30;64.00;100963.09;5015318;28;20318;-72
2021/05/03 06:51:54;;;;;;;;;;;;;;;9.29;64.36;100955.19;5012561;28;19956;-73
2021/05/03 06:54:20;;;;;;;;;;;;;;;9.36;63.83;100947.63;5031102;28;19996;-73
2021/05/03 06:56:45;;;;;;;;;;;;;;;9.42;64.18;100952.03;5038401;28;19975;-74
2021/05/03 06:59:10;;;;;;;;;;;;;;;9.41;64.00;100939.50;5025133;28;19940;-73
2021/05/03 07:01:36;;;;;;;;;;;;;;;9.38;64.40;100955.53;5046703;28;20481;-73
2021/05/03 07:04:01;;;;;;;;;;;;;;;9.39;64.39;100957.19;5032861;28;19909;-73
2021/05/03 07:06:26;;;;;;;;;;;;;;;9.38;64.42;100956.34;5027190;28;19918;-73
2021/05/03 07:08:52;;;;;;;;;;;;;;;9.29;64.19;100958.72;5032775;28;19915;-73
2021/05/03 07:11:21;;;;;;;;;;;;;;;9.21;64.40;100959.22;5027047;28;20004;-73
2021/05/03 07:13:46;;;;;;;;;;;;;;;9.25;64.71;100957.63;5019064;28;19943;-74
2021/05/03 07:16:11;;;;;;;;;;;;;;;9.32;64.15;100958.19;5044080;28;19952;-74
2021/05/03 07:18:36;;;;;;;;;;;;;;;9.21;64.48;100955.69;5028630;28;19917;-74
2021/05/03 07:21:03;;;;;;;;;;;;;;;9.16;64.79;100953.72;5029563;28;19921;-73
2021/05/03 07:23:28;;;;;;;;;;;;;;;9.23;64.47;100954.34;5027470;28;19912;-74
2021/05/03 07:25:53;;;;;;;;;;;;;;;9.24;64.77;100952.44;5030963;28;19913;-75
2021/05/03 07:28:18;;;;;;;;;;;;;;;9.29;64.30;100947.84;5025355;28;19913;-74
2021/05/03 07:30:44;;;;;;;;;;;;;;;9.32;64.17;100943.78;5031554;28;19919;-73
2021/05/03 07:33:09;;;;;;;;;;;;;;;9.30;64.32;100954.94;5011442;28;19910;-73
2021/05/03 07:35:34;;;;;;;;;;;;;;;9.29;64.29;100953.28;5030134;28;19959;-74
2021/05/03 07:37:59;;;;;;;;;;;;;;;9.33;63.88;100948.97;5047063;28;19913;-74
2021/05/03 07:40:24;;;;;;;;;;;;;;;9.34;63.94;100950.59;5033765;28;19999;-73
2021/05/03 07:42:50;;;;;;;;;;;;;;;9.31;63.55;100951.13;5031827;28;19967;-72
2021/05/03 07:45:15;;;;;;;;;;;;;;;9.30;63.69;100954.94;5021764;28;19917;-74
2021/05/03 07:47:41;;;;;;;;;;;;;;;9.23;63.59;100957.06;5025874;28;19931;-73
2021/05/03 07:50:06;;;;;;;;;;;;;;;9.19;63.31;100963.28;5036592;28;20339;-73
2021/05/03 07:52:31;;;;;;;;;;;;;;;9.18;63.36;100957.00;5026041;28;19940;-73
2021/05/03 07:54:58;;;;;;;;;;;;;;;9.17;63.49;100955.38;5051759;28;19916;-73
2021/05/03 07:57:28;;;;;;;;;;;;;;;9.15;63.38;100960.25;5035303;28;19967;-73
2021/05/03 07:59:53;;;;;;;;;;;;;;;9.16;63.05;100961.88;5036060;28;19935;-74
2021/05/03 08:02:18;;;;;;;;;;;;;;;9.15;63.18;100965.69;5050084;28;20358;-73
2021/05/03 08:04:43;;;;;;;;;;;;;;;9.09;63.19;100958.59;5035910;28;19967;-73
2021/05/03 08:07:09;;;;;;;;;;;;;;;9.02;63.21;100963.41;5049290;28;20270;-74
2021/05/03 08:09:34;;;;;;;;;;;;;;;9.02;63.13;100964.22;5051701;28;19919;-73
2021/05/03 08:11:59;;;;;;;;;;;;;;;9.00;63.41;100962.84;5047786;28;20362;-73
2021/05/03 08:14:24;;;;;;;;;;;;;;;8.92;63.47;100957.88;5035958;28;20281;-73
2021/05/03 08:16:59;;;;;;;;;;;;;;;8.83;63.62;100952.91;5032745;28;19944;-74
2021/05/03 08:19:24;;;;;;;;;;;;;;;8.77;63.82;100966.72;5035826;28;19958;-73
2021/05/03 08:21:49;;;;;;;;;;;;;;;8.68;63.93;100963.66;5031922;28;20290;-73
2021/05/03 08:24:15;;;;;;;;;;;;;;;8.57;64.49;100951.84;5051175;28;19909;-72
2021/05/03 08:26:40;;;;;;;;;;;;;;;8.53;64.69;100956.16;5046582;28;20367;-73
2021/05/03 08:29:05;;;;;;;;;;;;;;;8.51;64.75;100958.31;5051124;28;19915;-73
2021/05/03 08:31:30;;;;;;;;;;;;;;;8.50;64.82;100961.28;5032530;28;19944;-73
2021/05/03 08:33:56;;;;;;;;;;;;;;;8.49;64.76;100959.66;5032808;28;19916;-73
2021/05/03 08:36:21;;;;;;;;;;;;;;;8.52;64.80;100954.53;5048713;28;19951;-73
2021/05/03 08:38:46;;;;;;;;;;;;;;;8.56;64.89;100952.91;5046802;28;19949;-74
2021/05/03 08:41:16;;;;;;;;;;;;;;;8.58;64.49;100947.25;5032249;28;19913;-73
2021/05/03 08:43:42;;;;;;;;;;;;;;;8.55;64.63;100956.72;5028768;28;19920;-73
2021/05/03 08:46:13;;;;;;;;;;;;;;;8.61;64.93;100954.88;5035648;28;19912;-73
2021/05/03 08:48:42;;;;;;;;;;;;;;;8.68;64.58;100952.78;5029328;28;19921;-73
2021/05/03 08:51:14;;;;;;;;;;;;;;;8.75;64.76;100947.94;5049787;28;19909;-74
2021/05/03 08:53:44;;;;;;;;;;;;;;;8.88;64.48;100958.41;5042920;28;20380;-73
2021/05/03 08:56:10;;;;;;;;;;;;;;;9.09;64.29;100948.53;5034112;28;19913;-73
2021/05/03 08:58:38;;;;;;;;;;;;;;;9.27;64.27;100955.44;5023915;28;19913;-73
2021/05/03 09:01:04;;;;;;;;;;;;;;;9.53;63.67;100953.72;5050528;28;19909;-74
2021/05/03 09:03:29;;;;;;;;;;;;;;;9.78;63.52;100939.44;5023190;28;19963;-73
2021/05/03 09:05:54;;;;;;;;;;;;;;;9.96;63.03;100945.53;5050419;28;19996;-73
2021/05/03 09:08:23;;;;;;;;;;;;;;;9.98;62.78;100948.78;5022566;28;19936;-73
2021/05/03 09:10:48;;;;;;;;;;;;;;;9.92;62.62;100950.66;5034349;28;19923;-74
2021/05/03 09:13:15;;;;;;;;;;;;;;;9.98;63.03;100946.06;5021996;28;20004;-74
2021/05/03 09:15:40;;;;;;;;;;;;;;;10.01;62.91;100948.25;5017071;28;20282;-74
2021/05/03 09:18:05;;;;;;;;;;;;;;;10.14;63.03;100953.22;5021872;28;19913;-74
2021/05/03 09:20:31;;;;;;;;;;;;;;;10.26;62.73;100943.97;5034458;28;19909;-73
2021/05/03 09:22:59;;;;;;;;;;;;;;;10.32;62.74;100948.41;5038616;28;19948;-73
2021/05/03 09:25:38;;;;;;;;;;;;;;;10.55;62.68;100947.91;5047889;28;19909;-74
2021/05/03 09:28:36;;;;;;;;;;;;;;;10.71;61.99;100950.66;5022260;28;19926;-74
2021/05/03 09:31:01;;;;;;;;;;;;;;;10.75;61.43;100943.56;4989738;28;19955;-74
2021/05/03 09:33:27;;;;;;;;;;;;;;;10.74;61.26;100947.41;5015932;28;19913;-73
2021/05/03 09:35:59;;;;;;;;;;;;;;;10.64;61.06;100948.22;5034525;28;20215;-74
2021/05/03 09:38:34;;;;;;;;;;;;;;;10.58;60.90;100943.81;5032507;28;19942;-75
2021/05/03 09:41:06;;;;;;;;;;;;;;;10.46;60.67;100937.81;5034432;28;19909;-74
2021/05/03 09:43:32;;;;;;;;;;;;;;;10.33;60.83;100942.66;5047633;28;19939;-74
2021/05/03 09:45:57;;;;;;;;;;;;;;;10.32;61.05;100937.50;5034144;28;19912;-75
2021/05/03 09:48:22;;;;;;;;;;;;;;;10.27;60.94;100934.72;5046969;28;20004;-74
2021/05/03 09:50:48;;;;;;;;;;;;;;;10.25;60.88;100936.91;5049380;28;20139;-74
2021/05/03 09:53:13;;;;;;;;;;;;;;;10.10;61.52;100930.31;5031041;28;19917;-73
2021/05/03 09:55:45;;;;;;;;;;;;;;;10.06;61.47;100925.66;5049292;28;19908;-74
2021/05/03 09:58:15;;;;;;;;;;;;;;;10.06;61.81;100922.94;5029780;28;19958;-74
2021/05/03 10:00:46;;;;;;;;;;;;;;;10.25;61.49;100926.00;5023210;28;19909;-76
2021/05/03 10:03:31;;;;;;;;;;;;;;;10.41;61.36;100912.16;5040201;28;19920;-75
2021/05/03 10:05:58;;;;;;;;;;;;;;;10.51;60.74;100916.84;5029192;28;19971;-75
2021/05/03 10:08:24;;;;;;;;;;;;;;;10.49;60.34;100924.44;5025086;28;19912;-75
2021/05/03 10:10:51;;;;;;;;;;;;;;;10.62;59.96;100915.75;5033936;28;19909;-73
2021/05/03 10:13:17;;;;;;;;;;;;;;;11.11;59.74;100926.13;5002915;28;20301;-74
2021/05/03 10:15:42;;;;;;;;;;;;;;;11.26;59.12;100910.84;5049204;28;19909;-75
2021/05/03 10:18:07;;;;;;;;;;;;;;;11.40;58.77;100914.63;5023899;28;19913;-75
2021/05/03 10:20:32;;;;;;;;;;;;;;;11.41;58.03;100910.00;5032414;28;20056;-75
2021/05/03 10:22:58;;;;;;;;;;;;;;;11.19;58.61;100913.84;5040744;28;20490;-75
2021/05/03 10:25:23;;;;;;;;;;;;;;;11.13;58.73;100925.88;5013549;28;19912;-75
2021/05/03 10:27:50;;;;;;;;;;;;;;;10.96;58.83;100909.75;5009452;28;19917;-74
2021/05/03 10:30:16;;;;;;;;;;;;;;;10.96;59.10;100917.13;5029366;28;19916;-75
2021/05/03 10:32:43;;;;;;;;;;;;;;;10.99;59.12;100920.13;5027094;28;19950;-73
2021/05/03 10:35:25;;;;;;;;;;;;;;;11.04;59.34;100914.66;5025457;28;19963;-73
2021/05/03 10:37:52;;;;;;;;;;;;;;;11.13;59.25;100908.66;5027210;28;19913;-74
2021/05/03 10:40:20;;;;;;;;;;;;;;;11.23;58.82;100914.94;5026596;28;19916;-73
2021/05/03 10:43:00;;;;;;;;;;;;;;;11.18;58.93;100905.94;5027614;28;19913;-74
2021/05/03 10:45:38;;;;;;;;;;;;;;;11.22;58.70;100907.84;5027833;28;19924;-74
2021/05/03 10:48:23;;;;;;;;;;;;;;;11.27;58.39;100907.03;5040872;28;19924;-74
2021/05/03 10:50:49;;;;;;;;;;;;;;;11.31;57.50;100902.63;5029953;28;19908;-75
2021/05/03 10:53:30;;;;;;;;;;;;;;;11.34;57.28;100911.09;5032525;28;19924;-74
2021/05/03 10:55:56;;;;;;;;;;;;;;;11.56;56.09;100907.22;5032918;28;19941;-74
2021/05/03 10:58:22;;;;;;;;;;;;;;;11.64;56.10;100914.03;5043945;28;20354;-74
2021/05/03 11:01:00;;;;;;;;;;;;;;;11.65;55.35;100899.25;5032870;28;19909;-75
2021/05/03 11:03:44;;;;;;;;;;;;;;;11.60;55.17;100897.38;5027440;28;19920;-73
2021/05/03 11:06:09;;;;;;;;;;;;;;;11.77;55.19;100905.25;5032015;28;19913;-75
2021/05/03 11:08:34;;;;;;;;;;;;;;;11.94;54.29;100903.00;5031829;28;19924;-74
2021/05/03 11:11:03;;;;;;;;;;;;;;;11.86;53.59;100903.59;5032976;28;19916;-74
2021/05/03 11:13:41;;;;;;;;;;;;;;;11.75;52.98;100910.16;5013185;28;19913;-73
2021/05/03 11:16:28;;;;;;;;;;;;;;;11.81;52.97;100908.22;5024151;28;19909;-76
2021/05/03 11:18:57;;;;;;;;;;;;;;;11.86;52.46;100911.78;5024313;28;19913;-74
2021/05/03 11:21:40;;;;;;;;;;;;;;;11.93;52.35;100906.03;5032585;28;19916;-74
2021/05/03 11:24:32;;;;;;;;;;;;;;;12.13;52.50;100905.94;5025157;28;19913;-74
2021/05/03 11:29:24;;;;;;;;;;;;;;;12.30;51.94;100894.63;5014327;28;20072;-75
2021/05/03 11:31:50;;;;;;;;;;;;;;;12.51;51.72;100905.44;5026261;28;19912;-75
2021/05/03 11:34:23;;;;;;;;;;;;;;;12.76;51.45;100901.69;5039247;28;19991;-74
2021/05/03 11:36:55;;;;;;;;;;;;;;;13.02;51.29;100899.59;5014691;28;20440;-74
2021/05/03 11:39:56;;;;;;;;;;;;;;;13.20;50.91;100901.56;5023419;28;19913;-74
2021/05/03 11:44:52;;;;;;;;;;;;;;;13.07;49.62;100891.34;5021718;28;19924;-73
2021/05/03 11:47:27;;;;;;;;;;;;;;;12.91;49.31;100903.50;5017131;28;20027;-73
2021/05/03 11:49:52;;;;;;;;;;;;;;;12.89;48.36;100896.38;5030192;28;20002;-74
2021/05/03 11:52:25;;;;;;;;;;;;;;;13.00;48.13;100885.38;5029915;28;19948;-73
2021/05/03 11:54:50;;;;;;;;;;;;;;;13.09;47.71;100895.41;5012268;28;20282;-73
2021/05/03 11:57:17;;;;;;;;;;;;;;;13.35;47.48;100891.63;5029433;28;19913;-73
2021/05/03 11:59:42;;;;;;;;;;;;;;;13.51;46.73;100890.38;5028705;28;19913;-73
2021/05/03 12:02:11;;;;;;;;;;;;;;;13.55;46.07;100897.69;5029681;28;19913;-73
2021/05/03 12:04:37;;;;;;;;;;;;;;;13.51;46.08;100898.59;5018930;28;19920;-73
2021/05/03 12:07:09;;;;;;;;;;;;;;;13.65;45.79;100891.28;5031352;28;19939;-73
2021/05/03 12:09:34;;;;;;;;;;;;;;;13.66;45.50;100886.63;5013269;28;20240;-73
2021/05/03 12:12:00;;;;;;;;;;;;;;;13.77;45.04;100896.34;5017115;28;20347;-72
2021/05/03 12:14:43;;;;;;;;;;;;;;;13.87;45.21;100917.34;5030143;28;20343;-72
2021/05/03 12:17:15;;;;;;;;;;;;;;;13.71;44.34;100903.81;5031596;28;19920;-73
2021/05/03 12:19:41;;;;;;;;;;;;;;;13.81;44.60;100896.59;5028255;28;20092;-73
2021/05/03 12:22:06;;;;;;;;;;;;;;;14.08;44.53;100901.47;5029353;28;20011;-73
2021/05/03 12:24:35;;;;;;;;;;;;;;;14.15;43.94;100893.69;5029910;28;19920;-73
2021/05/03 12:27:00;;;;;;;;;;;;;;;14.16;44.16;100898.06;5031935;28;20273;-73
2021/05/03 12:29:26;;;;;;;;;;;;;;;14.36;43.67;100899.69;5035200;28;19913;-73
2021/05/03 12:31:51;;;;;;;;;;;;;;;14.34;43.17;100896.44;5023694;28;19919;-74
2021/05/03 12:34:22;;;;;;;;;;;;;;;14.33;43.55;100903.03;5033506;28;19927;-75
2021/05/03 12:37:06;;;;;;;;;;;;;;;14.52;43.40;100898.38;5034198;28;19920;-73
2021/05/03 12:39:32;;;;;;;;;;;;;;;14.48;43.23;100889.06;5032988;28;20370;-74
2021/05/03 12:42:08;;;;;;;;;;;;;;;14.72;42.68;100893.69;5035116;28;19946;-74
2021/05/03 12:44:45;;;;;;;;;;;;;;;14.75;42.25;100895.84;5032507;28;20031;-74
2021/05/03 12:47:30;;;;;;;;;;;;;;;14.89;42.66;100891.19;5038187;28;19917;-74
2021/05/03 12:49:59;;;;;;;;;;;;;;;15.24;42.14;100903.50;5032437;28;19954;-74
2021/05/03 12:52:49;;;;;;;;;;;;;;;15.52;41.92;100893.38;5034795;28;19955;-74
2021/05/03 12:55:30;;;;;;;;;;;;;;;15.42;40.90;100893.56;5044812;28;20063;-74
2021/05/03 12:58:09;;;;;;;;;;;;;;;15.44;41.35;100885.84;5048772;28;19913;-74
2021/05/03 13:00:47;;;;;;;;;;;;;;;15.82;40.82;100885.66;5028791;28;19921;-75
2021/05/03 13:03:16;;;;;;;;;;;;;;;16.19;40.59;100887.34;5033870;28;19920;-74
2021/05/03 13:05:51;;;;;;;;;;;;;;;16.54;40.00;100904.16;5015151;28;20227;-74